logo
Search for airport 
image banner adimage banner adimage banner ad
image banner ad

ED1424 - Altlewin

Located in , Germany

ICAO - , IATA -

Data provided by Airmate  

General information

Coordinates: N52°42'17" E14°15'24"
Elevation is 20 feet MSL.
 
View others Airports in Brandenburg

Operational data

Special qualification required
Current time UTC:
Current local time:
Weather at : EDDB - Berlin Brandenburg ( 64 km )
METAR: EDDB 241150Z AUTO 30014KT 280V340 9999 SCT036 SCT047 23/13 Q1016 TEMPO 28015G25KT
TAF: TAF EDDB 241100Z 2412/2512 30012KT 9999 SCT030 PROB30 TEMPO 2412/2415 30015G25KT BECMG 2416/2418 30005KT
View NOTAMs / SUP AIP / TFR affecting this airport [VIEW]
Communications frequencies: [VIEW]

Runways:

Airport contact information

Address: Germany

Satellite view of ED1424